Time;durP1;ratioP1;P1;durP2;ratioP2;P2;SDS_P1;SDS_P2;PMS_P1;PMS_P2;Temp;Humidity;BMP_temperature;BMP_pressure;BME280_temperature;BME280_humidity;BME280_pressure;Samples;Min_cycle;Max_cycle;Signal;HPM_P1;HPM_P2
2021/04/12 00:00:04;;;;;;;8.65;3.35;;;;;;;;;;4994589;28;20415;-76
2021/04/12 00:02:48;;;;;;;7.68;3.28;;;;;;;;;;4994493;28;20057;-75
2021/04/12 00:05:25;;;;;;;5.72;3.17;;;;;;;;;;4994355;28;20040;-75
2021/04/12 00:07:56;;;;;;;5.53;3.28;;;;;;;;;;4994348;28;20022;-75
2021/04/12 00:10:29;;;;;;;5.07;3.03;;;;;;;;;;4994545;28;20022;-77
2021/04/12 00:13:06;;;;;;;5.45;3.03;;;;;;;;;;4977512;28;20092;-76
2021/04/12 00:15:38;;;;;;;7.32;3.20;;;;;;;;;;4995865;28;20037;-76
2021/04/12 00:18:12;;;;;;;4.90;3.03;;;;;;;;;;5000123;28;20096;-75
2021/04/12 00:20:43;;;;;;;5.90;2.60;;;;;;;;;;4981887;28;20018;-76
2021/04/12 00:23:28;;;;;;;9.38;3.35;;;;;;;;;;4998767;28;20026;-75
2021/04/12 00:26:08;;;;;;;7.97;3.10;;;;;;;;;;4981400;28;20343;-76
2021/04/12 00:28:39;;;;;;;8.77;3.25;;;;;;;;;;4998264;28;20053;-76
2021/04/12 00:31:07;;;;;;;8.07;2.85;;;;;;;;;;4980999;28;20018;-75
2021/04/12 00:33:44;;;;;;;4.03;2.75;;;;;;;;;;4980906;28;20057;-76
2021/04/12 00:36:33;;;;;;;3.67;2.70;;;;;;;;;;4980966;28;20036;-75
2021/04/12 00:39:07;;;;;;;5.75;2.60;;;;;;;;;;4998057;28;20080;-76
2021/04/12 00:41:54;;;;;;;5.47;2.35;;;;;;;;;;4997947;28;20097;-76
2021/04/12 00:44:26;;;;;;;6.72;3.08;;;;;;;;;;4997937;28;20023;-76
2021/04/12 00:46:59;;;;;;;7.82;2.90;;;;;;;;;;4997781;28;20092;-75
2021/04/12 00:49:44;;;;;;;4.90;2.45;;;;;;;;;;5017504;28;20486;-76
2021/04/12 00:52:10;;;;;;;6.38;2.58;;;;;;;;;;5016730;28;20037;-76
2021/04/12 00:54:52;;;;;;;6.50;2.90;;;;;;;;;;5000044;28;20014;-76
2021/04/12 00:57:38;;;;;;;6.57;2.92;;;;;;;;;;5017339;28;20014;-76
2021/04/12 01:00:07;;;;;;;8.68;3.28;;;;;;;;;;5017202;28;20029;-75
2021/04/12 01:02:50;;;;;;;7.97;3.00;;;;;;;;;;5017215;28;20413;-77
2021/04/12 01:05:36;;;;;;;6.57;2.88;;;;;;;;;;5017094;28;20474;-76
2021/04/12 01:08:20;;;;;;;9.90;3.33;;;;;;;;;;5016546;28;20069;-76
2021/04/12 01:10:57;;;;;;;7.10;3.50;;;;;;;;;;5016937;28;20021;-76
2021/04/12 01:13:41;;;;;;;6.22;3.30;;;;;;;;;;5017042;28;20466;-76
2021/04/12 01:16:07;;;;;;;5.38;2.92;;;;;;;;;;5016924;28;20061;-76
2021/04/12 01:18:51;;;;;;;5.45;3.30;;;;;;;;;;5017160;28;20050;-75
2021/04/12 01:21:50;;;;;;;9.38;3.10;;;;;;;;;;5016832;28;20084;-75
2021/04/12 01:24:15;;;;;;;6.15;3.33;;;;;;;;;;5016839;28;20017;-75
2021/04/12 01:26:51;;;;;;;7.30;3.60;;;;;;;;;;5016794;28;20026;-75
2021/04/12 01:29:24;;;;;;;9.85;3.60;;;;;;;;;;5015459;28;20014;-75
2021/04/12 01:31:52;;;;;;;7.18;3.58;;;;;;;;;;5016789;28;20354;-75
2021/04/12 01:34:19;;;;;;;6.85;3.33;;;;;;;;;;5016625;28;20021;-75
2021/04/12 01:36:50;;;;;;;9.10;3.80;;;;;;;;;;5016585;28;20108;-75
2021/04/12 01:39:39;;;;;;;10.32;3.80;;;;;;;;;;5016610;28;20036;-75
2021/04/12 01:42:22;;;;;;;6.68;3.47;;;;;;;;;;5016475;28;20022;-75
2021/04/12 01:45:06;;;;;;;11.80;3.70;;;;;;;;;;4999124;28;20180;-76
2021/04/12 01:47:40;;;;;;;8.70;3.47;;;;;;;;;;5016118;28;20057;-76
2021/04/12 01:50:17;;;;;;;5.82;3.45;;;;;;;;;;5016292;28;20105;-75
2021/04/12 01:52:50;;;;;;;8.63;3.28;;;;;;;;;;5016293;28;20041;-76
2021/04/12 01:55:31;;;;;;;9.07;3.80;;;;;;;;;;5016324;28;20101;-76
2021/04/12 01:58:15;;;;;;;8.05;3.33;;;;;;;;;;5016201;28;20022;-75
2021/04/12 02:00:40;;;;;;;8.02;3.40;;;;;;;;;;5016162;28;20040;-75
2021/04/12 02:03:12;;;;;;;5.70;3.50;;;;;;;;;;5016050;28;20026;-76
2021/04/12 02:05:57;;;;;;;7.53;4.10;;;;;;;;;;5016084;28;20260;-76
2021/04/12 02:08:25;;;;;;;8.07;3.50;;;;;;;;;;5015513;28;20034;-75
2021/04/12 02:11:06;;;;;;;5.95;3.45;;;;;;;;;;5015894;28;20072;-75
2021/04/12 02:13:50;;;;;;;5.05;3.53;;;;;;;;;;5015882;28;20056;-75
2021/04/12 02:16:25;;;;;;;7.93;3.97;;;;;;;;;;5015879;28;20033;-75
2021/04/12 02:19:15;;;;;;;6.65;3.33;;;;;;;;;;5015722;28;20116;-78
2021/04/12 02:22:04;;;;;;;8.63;4.10;;;;;;;;;;5015734;28;20382;-78
2021/04/12 02:24:29;;;;;;;7.35;4.20;;;;;;;;;;4998304;28;20032;-76
2021/04/12 02:27:03;;;;;;;7.38;4.70;;;;;;;;;;5015540;28;20030;-75
2021/04/12 02:29:37;;;;;;;8.18;4.32;;;;;;;;;;5015737;28;20033;-76
2021/04/12 02:32:11;;;;;;;7.00;4.30;;;;;;;;;;5015500;28;20443;-75
2021/04/12 02:34:46;;;;;;;9.25;4.43;;;;;;;;;;5015502;28;20376;-76
2021/04/12 02:37:14;;;;;;;7.32;4.78;;;;;;;;;;5015487;28;20097;-76
2021/04/12 02:39:42;;;;;;;10.77;5.20;;;;;;;;;;5015002;28;20029;-76
2021/04/12 02:42:10;;;;;;;10.20;4.63;;;;;;;;;;5015326;28;20036;-76
2021/04/12 02:44:46;;;;;;;9.10;5.07;;;;;;;;;;5015275;28;20032;-76
2021/04/12 02:47:14;;;;;;;8.15;5.18;;;;;;;;;;5015102;28;20046;-75
2021/04/12 02:49:44;;;;;;;7.63;4.50;;;;;;;;;;5015268;28;20029;-76
2021/04/12 02:52:33;;;;;;;9.93;4.88;;;;;;;;;;5015121;28;20022;-76
2021/04/12 02:55:01;;;;;;;9.25;5.20;;;;;;;;;;5015105;28;20029;-76
2021/04/12 02:57:29;;;;;;;9.07;5.28;;;;;;;;;;5015072;28;20025;-76
2021/04/12 03:00:13;;;;;;;13.88;5.13;;;;;;;;;;4997736;28;20034;-75
2021/04/12 03:02:47;;;;;;;8.48;5.07;;;;;;;;;;4997703;28;20409;-75
2021/04/12 03:05:28;;;;;;;9.00;5.82;;;;;;;;;;5014898;28;20042;-75
2021/04/12 03:08:03;;;;;;;6.43;5.05;;;;;;;;;;5041046;28;20032;-76
2021/04/12 03:10:34;;;;;;;6.50;4.45;;;;;;;;;;5038852;28;20022;-76
2021/04/12 03:13:05;;;;;;;6.95;5.30;;;;;;;;;;5049696;28;20032;-75
2021/04/12 03:15:30;;;;;;;9.52;5.28;;;;;;;;;;5020196;28;20464;-76
2021/04/12 03:18:10;;;;;;;11.50;5.45;;;;;;;;;;5043270;28;20060;-76
2021/04/12 03:20:41;;;;;;;8.25;5.35;;;;;;;;;;5031024;28;20029;-76
2021/04/12 03:23:20;;;;;;;12.25;4.60;;;;;;;;;;5037669;28;20025;-75
2021/04/12 03:25:51;;;;;;;8.18;5.63;;;;;;;;;;5054114;28;20365;-75
2021/04/12 03:28:16;;;;;;;7.82;4.60;;;;;;;;;;5054130;28;20421;-75
2021/04/12 03:30:44;;;;;;;9.10;5.30;;;;;;;;;;5054129;28;20032;-75
2021/04/12 03:33:25;;;;;;;7.82;5.28;;;;;;;;;;5035313;28;20026;-77
2021/04/12 03:35:54;;;;;;;12.52;5.38;;;;;;;;;;5022888;28;20620;-77
2021/04/12 03:38:36;;;;;;;7.68;4.70;;;;;;;;;;5028354;28;20029;-78
2021/04/12 03:41:13;;;;;;;11.32;5.15;;;;;;;;;;5022189;28;20324;-78
2021/04/12 03:43:47;;;;;;;10.73;5.18;;;;;;;;;;5039302;28;20026;-77
2021/04/12 03:46:16;;;;;;;9.20;5.40;;;;;;;;;;5017098;28;20017;-77
2021/04/12 03:48:44;;;;;;;11.68;4.72;;;;;;;;;;5027600;28;20054;-80
2021/04/12 03:51:21;;;;;;;11.30;4.50;;;;;;;;;;5013645;28;20467;-76
2021/04/12 03:54:10;;;;;;;8.57;4.90;;;;;;;;;;5014401;28;20443;-77
2021/04/12 03:56:35;;;;;;;10.23;4.60;;;;;;;;;;5017210;28;20130;-75
2021/04/12 03:59:10;;;;;;;12.63;5.05;;;;;;;;;;5034030;28;20057;-78
2021/04/12 04:01:38;;;;;;;9.52;4.53;;;;;;;;;;5026014;28;20022;-77
2021/04/12 04:04:10;;;;;;;8.95;5.40;;;;;;;;;;5034596;28;20033;-78
2021/04/12 04:06:56;;;;;;;9.45;5.32;;;;;;;;;;5008273;28;20033;-79
2021/04/12 04:09:26;;;;;;;7.53;4.30;;;;;;;;;;5033560;28;20018;-80
2021/04/12 04:11:58;;;;;;;7.93;5.20;;;;;;;;;;5016321;28;20362;-79
2021/04/12 04:14:26;;;;;;;10.02;4.63;;;;;;;;;;5028216;28;20485;-75
2021/04/12 04:17:00;;;;;;;11.18;4.78;;;;;;;;;;5013618;28;20029;-80
2021/04/12 04:19:44;;;;;;;12.93;5.15;;;;;;;;;;5013868;28;20033;-75
2021/04/12 04:22:09;;;;;;;12.25;5.05;;;;;;;;;;5013700;28;20101;-81
2021/04/12 04:24:45;;;;;;;7.30;4.25;;;;;;;;;;5013646;28;20100;-77
2021/04/12 04:27:28;;;;;;;7.13;4.38;;;;;;;;;;5013585;28;20058;-80
2021/04/12 04:30:05;;;;;;;7.18;4.55;;;;;;;;;;5013705;28;20022;-82
2021/04/12 04:32:49;;;;;;;12.43;4.75;;;;;;;;;;5017478;28;20053;-79
2021/04/12 04:35:22;;;;;;;8.40;4.50;;;;;;;;;;5029848;28;20029;-84
2021/04/12 04:38:16;;;;;;;8.68;4.70;;;;;;;;;;5039398;28;20036;-78
2021/04/12 04:40:59;;;;;;;14.00;5.20;;;;;;;;;;5034927;28;20018;-80
2021/04/12 04:43:25;;;;;;;7.75;5.40;;;;;;;;;;5018538;28;20021;-80
2021/04/12 04:46:11;;;;;;;6.75;4.60;;;;;;;;;;5041888;28;20013;-81
2021/04/12 04:48:42;;;;;;;14.83;5.50;;;;;;;;;;5021062;28;20479;-82
2021/04/12 04:51:07;;;;;;;8.50;5.80;;;;;;;;;;5033504;28;20252;-77
2021/04/12 04:53:51;;;;;;;13.30;5.90;;;;;;;;;;5015540;28;20496;-77
2021/04/12 04:56:22;;;;;;;8.02;4.90;;;;;;;;;;5024851;28;20399;-77
2021/04/12 04:59:03;;;;;;;11.27;5.97;;;;;;;;;;5022793;28;20034;-86
2021/04/12 05:01:34;;;;;;;16.35;6.20;;;;;;;;;;5022968;28;20427;-84
2021/04/12 05:04:02;;;;;;;10.90;5.90;;;;;;;;;;5009930;28;20026;-83
2021/04/12 05:06:35;;;;;;;9.32;6.45;;;;;;;;;;5014378;28;20034;-83
2021/04/12 05:09:07;;;;;;;10.30;6.55;;;;;;;;;;4999660;28;20339;-83
2021/04/12 05:11:50;;;;;;;9.50;6.43;;;;;;;;;;5016844;28;20048;-83
2021/04/12 05:14:29;;;;;;;13.77;6.45;;;;;;;;;;5015492;28;20025;-83
2021/04/12 05:17:00;;;;;;;10.68;6.97;;;;;;;;;;5015307;28;20022;-83
2021/04/12 05:19:31;;;;;;;10.75;6.35;;;;;;;;;;5014022;28;20477;-79
2021/04/12 05:22:15;;;;;;;10.93;6.43;;;;;;;;;;5016164;28;20038;-80
2021/04/12 05:24:47;;;;;;;9.85;6.05;;;;;;;;;;5015702;28;20025;-78
2021/04/12 05:27:21;;;;;;;10.45;6.93;;;;;;;;;;5016270;28;20459;-78
2021/04/12 05:30:25;;;;;;;12.27;6.45;;;;;;;;;;5005710;28;20324;-81
2021/04/12 05:33:04;;;;;;;9.05;6.50;;;;;;;;;;4919645;29;20343;-82
2021/04/12 05:35:48;;;;;;;11.73;7.03;;;;;;;;;;4968316;28;20454;-83
2021/04/12 05:38:25;;;;;;;9.43;6.85;;;;;;;;;;5016542;28;20037;-83
2021/04/12 05:41:09;;;;;;;11.63;6.82;;;;;;;;;;5016501;28;20037;-76
2021/04/12 05:43:37;;;;;;;10.23;7.05;;;;;;;;;;5016223;28;20033;-75
2021/04/12 05:46:21;;;;;;;12.02;6.93;;;;;;;;;;5016188;28;20030;-74
2021/04/12 05:48:52;;;;;;;12.05;7.90;;;;;;;;;;5023779;28;20061;-74
2021/04/12 05:51:29;;;;;;;13.85;7.43;;;;;;;;;;4998611;28;20102;-73
2021/04/12 05:54:13;;;;;;;10.93;6.72;;;;;;;;;;5016227;28;20117;-73
2021/04/12 05:56:38;;;;;;;14.93;7.05;;;;;;;;;;5015976;28;20075;-73
2021/04/12 05:59:26;;;;;;;12.68;6.78;;;;;;;;;;5004879;28;20025;-74
2021/04/12 06:01:55;;;;;;;14.93;7.00;;;;;;;;;;5032997;28;20068;-76
2021/04/12 06:04:32;;;;;;;15.35;7.32;;;;;;;;;;5017495;28;20028;-75
2021/04/12 06:07:09;;;;;;;9.25;7.22;;;;;;;;;;5032635;28;20017;-76
2021/04/12 06:09:34;;;;;;;12.90;7.10;;;;;;;;;;5035772;28;20160;-77
2021/04/12 06:12:20;;;;;;;11.15;7.43;;;;;;;;;;5035543;28;20048;-75
2021/04/12 06:14:51;;;;;;;12.45;7.60;;;;;;;;;;5033012;28;20478;-76
2021/04/12 06:17:20;;;;;;;11.55;7.10;;;;;;;;;;5018598;28;20397;-74
2021/04/12 06:20:03;;;;;;;13.65;7.15;;;;;;;;;;5035470;28;20025;-74
2021/04/12 06:22:35;;;;;;;16.15;7.35;;;;;;;;;;5035225;28;20105;-75
2021/04/12 06:25:03;;;;;;;12.00;8.02;;;;;;;;;;5034947;28;20056;-76
2021/04/12 06:27:38;;;;;;;14.10;8.07;;;;;;;;;;5035125;28;20017;-77
2021/04/12 06:30:30;;;;;;;11.10;7.43;;;;;;;;;;5034022;28;20009;-77
2021/04/12 06:33:04;;;;;;;13.48;7.68;;;;;;;;;;5004427;28;20033;-75
2021/04/12 06:35:45;;;;;;;11.32;7.65;;;;;;;;;;5015242;28;20036;-76
2021/04/12 06:38:12;;;;;;;12.45;7.45;;;;;;;;;;5015181;28;20014;-76
2021/04/12 06:40:51;;;;;;;11.15;8.00;;;;;;;;;;5015497;28;20510;-76
2021/04/12 06:43:19;;;;;;;11.98;8.70;;;;;;;;;;5015023;28;20030;-77
2021/04/12 06:45:56;;;;;;;13.52;7.63;;;;;;;;;;5026969;28;20444;-76
2021/04/12 06:48:27;;;;;;;13.60;7.85;;;;;;;;;;5015625;28;20475;-76
2021/04/12 06:51:04;;;;;;;12.68;8.02;;;;;;;;;;5034349;28;20092;-76
2021/04/12 06:53:39;;;;;;;16.48;7.30;;;;;;;;;;5034438;28;20025;-77
2021/04/12 06:56:07;;;;;;;11.85;8.20;;;;;;;;;;5034504;28;20014;-77
2021/04/12 06:58:32;;;;;;;14.05;8.20;;;;;;;;;;5032464;28;20037;-75
2021/04/12 07:01:17;;;;;;;13.73;8.57;;;;;;;;;;5001335;28;20022;-75
2021/04/12 07:03:43;;;;;;;14.40;8.52;;;;;;;;;;5028800;28;20326;-75
2021/04/12 07:06:26;;;;;;;13.93;8.02;;;;;;;;;;5028023;28;20025;-76
2021/04/12 07:09:12;;;;;;;10.50;8.60;;;;;;;;;;5028972;28;20088;-77
2021/04/12 07:11:53;;;;;;;15.63;7.68;;;;;;;;;;5014280;28;20522;-77
2021/04/12 07:14:38;;;;;;;10.13;7.82;;;;;;;;;;5018363;28;20040;-76
2021/04/12 07:17:06;;;;;;;12.32;7.45;;;;;;;;;;5024798;28;20017;-77
2021/04/12 07:19:50;;;;;;;11.40;7.85;;;;;;;;;;5026031;28;20025;-78
2021/04/12 07:22:28;;;;;;;14.27;7.18;;;;;;;;;;5033939;28;20031;-80
2021/04/12 07:24:53;;;;;;;11.32;8.32;;;;;;;;;;5025225;28;20369;-79
2021/04/12 07:27:27;;;;;;;10.70;7.35;;;;;;;;;;5033618;28;20021;-78
2021/04/12 07:30:14;;;;;;;12.25;7.55;;;;;;;;;;5033602;28;20018;-78
2021/04/12 07:32:48;;;;;;;13.60;8.27;;;;;;;;;;5015049;28;20121;-78
2021/04/12 07:35:14;;;;;;;11.05;7.25;;;;;;;;;;5013753;28;20022;-77
2021/04/12 07:37:57;;;;;;;10.27;6.90;;;;;;;;;;5031798;28;20028;-79
2021/04/12 07:40:25;;;;;;;10.25;7.93;;;;;;;;;;5033596;28;20028;-78
2021/04/12 07:42:53;;;;;;;9.10;7.38;;;;;;;;;;5033651;28;20022;-77
2021/04/12 07:46:03;;;;;;;11.75;8.00;;;;;;;;;;5033578;28;20052;-77
2021/04/12 07:48:33;;;;;;;9.82;7.40;;;;;;;;;;4972225;28;20109;-79
2021/04/12 07:50:59;;;;;;;9.90;7.05;;;;;;;;;;5019211;28;20038;-78
2021/04/12 07:53:24;;;;;;;10.02;7.35;;;;;;;;;;5005313;28;20431;-76
2021/04/12 07:56:21;;;;;;;11.98;7.05;;;;;;;;;;5031188;28;20029;-77
2021/04/12 07:59:22;;;;;;;11.00;6.53;;;;;;;;;;5033081;28;20121;-78
2021/04/12 08:02:07;;;;;;;10.77;7.07;;;;;;;;;;4992446;28;20489;-78
2021/04/12 08:04:51;;;;;;;9.48;6.35;;;;;;;;;;5029550;28;20033;-78
2021/04/12 08:07:35;;;;;;;9.60;6.85;;;;;;;;;;5015682;28;20504;-78
2021/04/12 08:10:12;;;;;;;9.45;6.65;;;;;;;;;;5032377;28;20087;-78
2021/04/12 08:12:38;;;;;;;9.95;6.45;;;;;;;;;;5034908;28;20120;-78
2021/04/12 08:15:14;;;;;;;8.75;6.35;;;;;;;;;;5039055;28;20054;-79
2021/04/12 08:17:58;;;;;;;11.40;7.13;;;;;;;;;;5033240;28;20056;-78
2021/04/12 08:20:23;;;;;;;12.80;5.90;;;;;;;;;;5033143;28;20021;-78
2021/04/12 08:22:51;;;;;;;8.90;6.50;;;;;;;;;;5032754;28;20331;-78
2021/04/12 08:25:34;;;;;;;11.10;5.97;;;;;;;;;;5033129;28;20034;-78
2021/04/12 08:28:18;;;;;;;12.02;7.20;;;;;;;;;;5033218;28;20084;-78
2021/04/12 08:31:08;;;;;;;11.88;6.22;;;;;;;;;;5033267;28;20041;-77
2021/04/12 08:34:01;;;;;;;9.48;6.20;;;;;;;;;;5032854;28;20017;-77
2021/04/12 08:36:55;;;;;;;7.95;5.50;;;;;;;;;;5033032;28;20021;-79
2021/04/12 08:39:39;;;;;;;7.07;5.82;;;;;;;;;;5034442;28;20033;-76
2021/04/12 08:42:23;;;;;;;8.63;4.93;;;;;;;;;;5037188;28;20026;-79
2021/04/12 08:45:06;;;;;;;7.55;4.78;;;;;;;;;;5036723;28;20047;-78
2021/04/12 08:47:37;;;;;;;7.22;4.47;;;;;;;;;;5036701;28;20064;-75
2021/04/12 08:50:12;;;;;;;5.18;2.78;;;;;;;;;;5036858;28;20017;-76
2021/04/12 08:52:55;;;;;;;5.22;3.38;;;;;;;;;;5037264;28;20020;-76
2021/04/12 08:55:21;;;;;;;5.93;2.90;;;;;;;;;;5036741;28;20017;-75
2021/04/12 08:57:54;;;;;;;3.85;2.15;;;;;;;;;;5036795;28;20034;-76
2021/04/12 09:00:22;;;;;;;5.13;3.08;;;;;;;;;;5036725;28;20033;-76
2021/04/12 09:02:48;;;;;;;3.88;2.90;;;;;;;;;;5036674;28;20442;-76
2021/04/12 09:05:16;;;;;;;4.22;2.90;;;;;;;;;;5036574;28;20060;-77
2021/04/12 09:07:49;;;;;;;3.33;2.50;;;;;;;;;;5036638;28;20028;-77
2021/04/12 09:10:32;;;;;;;3.92;2.60;;;;;;;;;;5036193;28;20032;-77
2021/04/12 09:13:00;;;;;;;2.40;1.95;;;;;;;;;;5036499;28;20509;-74
2021/04/12 09:15:35;;;;;;;2.05;1.50;;;;;;;;;;5021203;28;20389;-74
2021/04/12 09:18:20;;;;;;;2.38;1.20;;;;;;;;;;5027415;28;20028;-78
2021/04/12 09:20:56;;;;;;;1.92;1.33;;;;;;;;;;5024574;28;20021;-78
2021/04/12 09:23:23;;;;;;;1.25;0.85;;;;;;;;;;5019237;28;20021;-78
2021/04/12 09:26:07;;;;;;;1.33;0.73;;;;;;;;;;4999373;28;20018;-78
2021/04/12 09:28:53;;;;;;;0.88;0.70;;;;;;;;;;5021735;28;20083;-78
2021/04/12 09:31:18;;;;;;;2.60;0.60;;;;;;;;;;5016528;28;20033;-78
2021/04/12 09:33:53;;;;;;;1.70;0.70;;;;;;;;;;5016733;28;20026;-80
2021/04/12 09:36:24;;;;;;;1.00;0.70;;;;;;;;;;4999453;28;20022;-79
2021/04/12 09:38:49;;;;;;;1.90;0.80;;;;;;;;;;5014842;28;20537;-79
2021/04/12 09:41:15;;;;;;;4.10;1.00;;;;;;;;;;5018657;28;20112;-79
2021/04/12 09:44:01;;;;;;;1.02;0.98;;;;;;;;;;5036940;28;20025;-80
2021/04/12 09:46:46;;;;;;;2.80;1.25;;;;;;;;;;5036567;28;20026;-80
2021/04/12 09:49:30;;;;;;;4.47;1.35;;;;;;;;;;5017313;28;20104;-77
2021/04/12 09:52:00;;;;;;;3.97;1.45;;;;;;;;;;5036323;28;20024;-79
2021/04/12 09:54:55;;;;;;;4.18;2.80;;;;;;;;;;5018627;28;20025;-80
2021/04/12 09:57:56;;;;;;;5.95;3.80;;;;;;;;;;5036061;28;20104;-81
2021/04/12 10:00:33;;;;;;;6.10;4.72;;;;;;;;;;4994082;28;20026;-80
2021/04/12 10:03:14;;;;;;;8.60;6.30;;;;;;;;;;5029867;28;20112;-80
2021/04/12 10:05:59;;;;;;;8.25;6.72;;;;;;;;;;5026899;28;20514;-79
2021/04/12 10:08:50;;;;;;;9.85;7.65;;;;;;;;;;5035412;28;20030;-79
2021/04/12 10:11:22;;;;;;;7.30;6.57;;;;;;;;;;5031115;28;20033;-80
2021/04/12 10:14:20;;;;;;;7.68;6.85;;;;;;;;;;5035716;28;20026;-80
2021/04/12 10:16:53;;;;;;;6.72;6.03;;;;;;;;;;5002457;28;20048;-81
2021/04/12 10:19:22;;;;;;;7.50;6.50;;;;;;;;;;5018765;28;20021;-81
2021/04/12 10:21:51;;;;;;;7.05;4.93;;;;;;;;;;5017941;28;20033;-83
2021/04/12 10:24:19;;;;;;;5.55;4.40;;;;;;;;;;5036424;28;20036;-82
2021/04/12 10:26:50;;;;;;;7.50;4.35;;;;;;;;;;5015597;28;20018;-81
2021/04/12 10:29:36;;;;;;;4.05;3.53;;;;;;;;;;5017398;28;20017;-79
2021/04/12 10:32:13;;;;;;;3.65;2.78;;;;;;;;;;5006843;28;20029;-80
2021/04/12 10:35:02;;;;;;;3.60;2.80;;;;;;;;;;5027794;28;20029;-82
2021/04/12 10:37:52;;;;;;;2.88;2.28;;;;;;;;;;5007616;28;20029;-81
2021/04/12 10:40:17;;;;;;;2.97;2.10;;;;;;;;;;4998215;28;20080;-81
2021/04/12 10:43:01;;;;;;;3.45;2.00;;;;;;;;;;4998672;28;20018;-80
2021/04/12 10:45:37;;;;;;;4.22;2.53;;;;;;;;;;5015689;28;20022;-82
2021/04/12 10:48:11;;;;;;;5.78;2.60;;;;;;;;;;5017340;28;20069;-82
2021/04/12 10:50:55;;;;;;;2.63;2.33;;;;;;;;;;5017954;28;20041;-83
2021/04/12 10:53:38;;;;;;;4.13;2.90;;;;;;;;;;5015228;28;20018;-82
2021/04/12 10:56:26;;;;;;;3.40;3.10;;;;;;;;;;4997912;28;20104;-83
2021/04/12 10:58:51;;;;;;;3.22;2.60;;;;;;;;;;4990314;28;20435;-84
2021/04/12 11:01:39;;;;;;;3.50;1.80;;;;;;;;;;5015260;28;20029;-85
2021/04/12 11:04:13;;;;;;;2.58;1.55;;;;;;;;;;5015882;28;20014;-83
2021/04/12 11:06:56;;;;;;;3.97;1.60;;;;;;;;;;5015317;28;20474;-83
2021/04/12 11:09:37;;;;;;;2.58;1.20;;;;;;;;;;5018981;28;20026;-83
2021/04/12 11:12:20;;;;;;;2.10;1.20;;;;;;;;;;5016089;28;20018;-83
2021/04/12 11:14:51;;;;;;;1.80;1.40;;;;;;;;;;5016452;28;20086;-83
2021/04/12 11:17:17;;;;;;;2.60;1.35;;;;;;;;;;4999814;28;20079;-82
2021/04/12 11:19:54;;;;;;;1.90;1.60;;;;;;;;;;5002847;28;20085;-82
2021/04/12 11:22:19;;;;;;;1.90;1.25;;;;;;;;;;5031201;28;20296;-81
2021/04/12 11:24:50;;;;;;;2.53;1.20;;;;;;;;;;5030781;28;20018;-82
2021/04/12 11:27:33;;;;;;;5.57;1.30;;;;;;;;;;5019623;28;20026;-85
2021/04/12 11:30:10;;;;;;;2.08;1.48;;;;;;;;;;5014868;28;20052;-83
2021/04/12 11:32:44;;;;;;;2.38;1.27;;;;;;;;;;5014755;28;20093;-83
2021/04/12 11:35:16;;;;;;;2.72;1.27;;;;;;;;;;5014632;28;20018;-84
2021/04/12 11:37:44;;;;;;;1.20;1.10;;;;;;;;;;5014373;28;20354;-84
2021/04/12 11:40:17;;;;;;;1.98;1.13;;;;;;;;;;5014303;28;20510;-84
2021/04/12 11:42:48;;;;;;;2.05;1.42;;;;;;;;;;5014397;28;20140;-84
2021/04/12 11:45:24;;;;;;;2.28;1.13;;;;;;;;;;5011089;28;20370;-84
2021/04/12 11:48:08;;;;;;;2.25;1.30;;;;;;;;;;5022143;28;20042;-84
2021/04/12 11:50:43;;;;;;;4.43;1.42;;;;;;;;;;5020107;28;20096;-84
2021/04/12 11:53:20;;;;;;;4.97;1.50;;;;;;;;;;5033739;28;20045;-84
2021/04/12 11:55:54;;;;;;;3.20;1.50;;;;;;;;;;5042802;28;20113;-85
2021/04/12 11:58:38;;;;;;;2.35;1.38;;;;;;;;;;5013434;28;20037;-86
2021/04/12 12:01:23;;;;;;;2.67;1.42;;;;;;;;;;5033786;28;20040;-85
2021/04/12 12:03:56;;;;;;;1.70;1.23;;;;;;;;;;5011748;28;20053;-83
2021/04/12 12:06:26;;;;;;;2.45;1.27;;;;;;;;;;5013843;28;20093;-82
2021/04/12 12:08:55;;;;;;;4.10;1.40;;;;;;;;;;5022457;28;20422;-83
2021/04/12 12:11:20;;;;;;;1.52;1.20;;;;;;;;;;5033436;28;20438;-82
2021/04/12 12:13:58;;;;;;;2.83;1.40;;;;;;;;;;5032761;28;20036;-83
2021/04/12 12:16:33;;;;;;;2.53;1.20;;;;;;;;;;5033467;28;20013;-84
2021/04/12 12:19:21;;;;;;;2.13;1.15;;;;;;;;;;5033543;28;20327;-84
2021/04/12 12:22:00;;;;;;;1.75;1.10;;;;;;;;;;5010057;28;20060;-82
2021/04/12 12:24:30;;;;;;;2.35;1.05;;;;;;;;;;5033818;28;20136;-83
2021/04/12 12:27:06;;;;;;;2.80;1.23;;;;;;;;;;5033470;28;20021;-83
2021/04/12 12:29:33;;;;;;;2.70;1.65;;;;;;;;;;5033436;28;20462;-80
2021/04/12 12:32:14;;;;;;;1.85;1.20;;;;;;;;;;5032562;28;20025;-82
2021/04/12 12:34:59;;;;;;;2.22;1.00;;;;;;;;;;5005350;28;20030;-83
2021/04/12 12:37:26;;;;;;;1.83;1.25;;;;;;;;;;5024499;28;20017;-83
2021/04/12 12:39:55;;;;;;;5.32;1.40;;;;;;;;;;5027725;28;20422;-83
2021/04/12 12:42:23;;;;;;;2.45;1.45;;;;;;;;;;5033138;28;20394;-84
2021/04/12 12:44:49;;;;;;;3.55;1.50;;;;;;;;;;5033358;28;20032;-83
2021/04/12 12:47:16;;;;;;;3.00;1.10;;;;;;;;;;5033326;28;20038;-83
2021/04/12 12:49:47;;;;;;;1.60;1.20;;;;;;;;;;5033279;28;20358;-83
2021/04/12 12:52:14;;;;;;;2.80;1.42;;;;;;;;;;5033462;28;20018;-84
2021/04/12 12:54:44;;;;;;;2.70;1.40;;;;;;;;;;5033443;28;20357;-85
2021/04/12 12:57:20;;;;;;;1.65;1.27;;;;;;;;;;5033361;28;20021;-83
2021/04/12 12:59:53;;;;;;;2.22;1.00;;;;;;;;;;5033762;28;20049;-82
2021/04/12 13:02:26;;;;;;;1.60;0.90;;;;;;;;;;5033255;28;20030;-83
2021/04/12 13:05:09;;;;;;;2.55;0.90;;;;;;;;;;5033113;28;20059;-78
2021/04/12 13:07:35;;;;;;;1.13;0.85;;;;;;;;;;5030213;28;20025;-80
2021/04/12 13:10:04;;;;;;;3.10;1.05;;;;;;;;;;5022705;28;20391;-86
2021/04/12 13:12:38;;;;;;;2.33;1.13;;;;;;;;;;5051052;28;20029;-79
2021/04/12 13:15:26;;;;;;;1.30;0.88;;;;;;;;;;5032832;28;20027;-79
2021/04/12 13:17:52;;;;;;;1.92;1.00;;;;;;;;;;5015608;28;20021;-83
2021/04/12 13:20:20;;;;;;;3.05;0.95;;;;;;;;;;5033219;28;20024;-80
2021/04/12 13:22:48;;;;;;;2.20;1.08;;;;;;;;;;5033163;28;20098;-79
2021/04/12 13:25:31;;;;;;;1.55;0.90;;;;;;;;;;5018752;28;20022;-78
2021/04/12 13:27:59;;;;;;;2.47;0.85;;;;;;;;;;5036061;28;20025;-77
2021/04/12 13:30:31;;;;;;;1.27;0.82;;;;;;;;;;5035626;28;20024;-80
2021/04/12 13:33:19;;;;;;;2.38;0.90;;;;;;;;;;5019232;28;20041;-80
2021/04/12 13:35:45;;;;;;;2.15;1.00;;;;;;;;;;5029673;28;20101;-80
2021/04/12 13:38:18;;;;;;;2.58;1.13;;;;;;;;;;5044651;28;20021;-83
2021/04/12 13:40:46;;;;;;;2.10;1.30;;;;;;;;;;5056487;28;20021;-90
2021/04/12 13:43:15;;;;;;;5.57;1.70;;;;;;;;;;5056401;28;20028;-78
2021/04/12 13:45:45;;;;;;;3.65;1.70;;;;;;;;;;5038775;28;20025;-79
2021/04/12 13:48:21;;;;;;;6.18;1.88;;;;;;;;;;5056515;28;20055;-84
2021/04/12 13:50:47;;;;;;;;;;;;;;;;;;5060161;28;20515;-83
2021/04/12 13:53:48;;;;;;;2.73;1.33;;;;;;;;;;5056613;28;19932;-80
2021/04/12 13:56:19;;;;;;;2.13;1.42;;;;;;;;;;4975461;28;20088;-79
2021/04/12 13:58:48;;;;;;;4.72;1.95;;;;;;;;;;4997205;28;20041;-83
2021/04/12 14:01:15;;;;;;;2.67;1.50;;;;;;;;;;5015038;28;20116;-84
2021/04/12 14:04:02;;;;;;;3.95;1.45;;;;;;;;;;5014665;28;20026;-80
2021/04/12 14:06:33;;;;;;;2.53;1.35;;;;;;;;;;4997495;28;20037;-81
2021/04/12 14:09:07;;;;;;;2.97;1.48;;;;;;;;;;5015401;28;20038;-80
2021/04/12 14:11:32;;;;;;;2.58;1.23;;;;;;;;;;5014338;28;20022;-84
2021/04/12 14:14:04;;;;;;;2.43;1.13;;;;;;;;;;5014871;28;20014;-86
2021/04/12 14:16:34;;;;;;;3.70;1.20;;;;;;;;;;5016220;28;20256;-85
2021/04/12 14:19:05;;;;;;;3.13;1.40;;;;;;;;;;5015816;28;20030;-83
2021/04/12 14:21:41;;;;;;;3.60;1.48;;;;;;;;;;5015930;28;20017;-88
2021/04/12 14:24:15;;;;;;;1.45;1.10;;;;;;;;;;5015786;28;20025;-86
2021/04/12 14:26:43;;;;;;;1.95;1.00;;;;;;;;;;5015323;28;20018;-82
2021/04/12 14:29:32;;;;;;;2.65;0.90;;;;;;;;;;5014626;28;20021;-83
2021/04/12 14:32:18;;;;;;;1.30;1.00;;;;;;;;;;4978311;28;20362;-81
2021/04/12 14:34:46;;;;;;;0.90;0.70;;;;;;;;;;5008517;28;20331;-81
2021/04/12 14:37:16;;;;;;;0.82;0.70;;;;;;;;;;5014737;28;20465;-84
2021/04/12 14:42:53;;;;;;;1.77;0.90;;;;;;;;;;4993341;28;20030;-89
2021/04/12 14:45:24;;;;;;;1.20;0.90;;;;;;;;;;5017297;28;20018;-88
2021/04/12 14:50:55;;;;;;;2.97;1.00;;;;;;;;;;5015175;28;20054;-79
2021/04/12 14:53:24;;;;;;;1.60;1.13;;;;;;;;;;5015224;28;20033;-78
2021/04/12 14:55:52;;;;;;;2.03;1.25;;;;;;;;;;4997558;28;20466;-83
2021/04/12 14:58:18;;;;;;;1.77;1.20;;;;;;;;;;5014837;28;20021;-80
2021/04/12 15:00:48;;;;;;;1.33;1.20;;;;;;;;;;5015045;28;20084;-80
2021/04/12 15:03:16;;;;;;;1.85;1.13;;;;;;;;;;4998143;28;20029;-81
2021/04/12 15:05:51;;;;;;;5.18;1.20;;;;;;;;;;5015065;28;20034;-80
2021/04/12 15:08:43;;;;;;;2.10;1.45;;;;;;;;;;5014010;28;20026;-81
2021/04/12 15:11:14;;;;;;;2.80;1.40;;;;;;;;;;4991472;28;20034;-83
2021/04/12 15:13:58;;;;;;;2.65;1.50;;;;;;;;;;5015036;28;20026;-81
2021/04/12 15:16:29;;;;;;;1.88;1.20;;;;;;;;;;5015089;28;20093;-84
2021/04/12 15:19:00;;;;;;;3.90;1.70;;;;;;;;;;5015250;28;20018;-84
2021/04/12 15:21:27;;;;;;;3.08;1.70;;;;;;;;;;5014988;28;20025;-83
2021/04/12 15:24:20;;;;;;;3.30;1.50;;;;;;;;;;4998110;28;20026;-83
2021/04/12 15:26:48;;;;;;;5.43;1.73;;;;;;;;;;5014854;28;20105;-81
2021/04/12 15:29:22;;;;;;;4.35;1.60;;;;;;;;;;5015671;28;20022;-82
2021/04/12 15:31:52;;;;;;;3.53;1.55;;;;;;;;;;5016741;28;20089;-83
2021/04/12 15:34:31;;;;;;;2.28;1.45;;;;;;;;;;5016658;28;20014;-83
2021/04/12 15:36:58;;;;;;;3.42;1.33;;;;;;;;;;5016587;28;20025;-78